Time;durP1;ratioP1;P1;durP2;ratioP2;P2;SDS_P1;SDS_P2;PMS_P1;PMS_P2;Temp;Humidity;BMP_temperature;BMP_pressure;BME280_temperature;BME280_humidity;BME280_pressure;Samples;Min_cycle;Max_cycle;Signal;HPM_P1;HPM_P2
2022/09/07 00:00:15;;;;;;;9.68;5.97;;;18.30;99.90;;;;;;5085673;28;20048;-68
2022/09/07 00:02:41;;;;;;;8.95;5.78;;;18.30;99.90;;;;;;5069398;28;20075;-67
2022/09/07 00:05:07;;;;;;;13.13;6.45;;;18.30;99.90;;;;;;5071493;28;20057;-67
2022/09/07 00:07:33;;;;;;;8.68;6.65;;;18.30;99.90;;;;;;5071645;28;20044;-70
2022/09/07 00:09:59;;;;;;;12.32;7.50;;;18.20;99.90;;;;;;5070143;28;20047;-70
2022/09/07 00:12:25;;;;;;;7.38;5.97;;;18.20;99.90;;;;;;5070127;28;20087;-67
2022/09/07 00:14:50;;;;;;;7.47;6.30;;;18.20;99.90;;;;;;5082143;28;20630;-68
2022/09/07 00:17:16;;;;;;;8.18;6.45;;;18.10;99.90;;;;;;5089185;28;20672;-67
2022/09/07 00:19:41;;;;;;;9.07;6.72;;;18.10;99.90;;;;;;5090601;28;20039;-68
2022/09/07 00:22:07;;;;;;;8.05;6.78;;;18.10;99.90;;;;;;5091030;28;20048;-67
2022/09/07 00:24:33;;;;;;;12.80;7.45;;;18.10;99.90;;;;;;5092731;28;20388;-66
2022/09/07 00:26:58;;;;;;;11.95;6.72;;;18.00;99.90;;;;;;5092519;28;20043;-71
2022/09/07 00:29:24;;;;;;;10.32;7.13;;;18.00;99.90;;;;;;5091758;28;20427;-67
2022/09/07 00:31:50;;;;;;;7.53;6.80;;;18.00;99.90;;;;;;5090582;28;20051;-66
2022/09/07 00:34:15;;;;;;;13.23;7.43;;;18.00;99.90;;;;;;5088561;28;20480;-67
2022/09/07 00:36:41;;;;;;;9.63;6.95;;;18.00;99.90;;;;;;5074841;28;20771;-67
2022/09/07 00:39:07;;;;;;;8.15;7.35;;;17.90;99.90;;;;;;5071039;28;20420;-69
2022/09/07 00:41:33;;;;;;;9.52;7.63;;;17.90;99.90;;;;;;5069029;28;20047;-66
2022/09/07 00:44:36;;;;;;;10.50;7.85;;;17.90;99.90;;;;;;5069590;28;20060;-68
2022/09/07 00:47:04;;;;;;;9.10;8.20;;;17.90;99.90;;;;;;5070369;28;20437;-68
2022/09/07 00:49:29;;;;;;;9.25;7.72;;;17.90;99.90;;;;;;5069670;28;20400;-69
2022/09/07 00:52:00;;;;;;;12.45;7.70;;;17.90;99.90;;;;;;5073475;28;20046;-68
2022/09/07 00:54:31;;;;;;;9.85;7.30;;;17.80;99.90;;;;;;5073882;28;20047;-67
2022/09/07 00:56:58;;;;;;;10.98;7.90;;;17.80;99.90;;;;;;5070459;28;20040;-67
2022/09/07 00:59:30;;;;;;;11.90;7.43;;;17.80;99.90;;;;;;5069986;28;20055;-69
2022/09/07 01:01:56;;;;;;;11.77;7.43;;;17.80;99.90;;;;;;5069622;28;20063;-68
2022/09/07 01:04:22;;;;;;;11.55;7.80;;;17.80;99.90;;;;;;5069892;28;20043;-68
2022/09/07 01:06:48;;;;;;;9.25;7.55;;;17.70;99.90;;;;;;5085934;28;20474;-68
2022/09/07 01:09:19;;;;;;;12.20;6.95;;;17.80;99.90;;;;;;5089020;28;20582;-69
2022/09/07 01:11:49;;;;;;;9.80;7.63;;;17.80;99.90;;;;;;5088844;28;20079;-67
2022/09/07 01:14:27;;;;;;;9.55;7.63;;;17.70;99.90;;;;;;5069793;28;20474;-67
2022/09/07 01:17:44;;;;;;;11.77;7.85;;;17.70;99.90;;;;;;5069497;28;20852;-66
2022/09/07 01:20:33;;;;;;;10.60;9.00;;;17.70;99.90;;;;;;5064354;28;20056;-68
2022/09/07 01:23:04;;;;;;;9.88;8.38;;;17.70;99.90;;;;;;5070043;28;20086;-68
2022/09/07 01:26:08;;;;;;;10.50;8.52;;;17.70;99.90;;;;;;5069783;28;20060;-68
2022/09/07 01:28:35;;;;;;;10.65;9.27;;;17.70;99.90;;;;;;5070767;28;20043;-68
2022/09/07 01:31:24;;;;;;;10.30;8.35;;;17.70;99.90;;;;;;5069875;28;20050;-68
2022/09/07 01:33:58;;;;;;;12.63;9.20;;;17.70;99.90;;;;;;5072883;28;20155;-67
2022/09/07 01:36:36;;;;;;;11.38;10.10;;;17.70;99.90;;;;;;5089443;28;20651;-67
2022/09/07 01:39:04;;;;;;;11.40;8.90;;;17.60;99.90;;;;;;5089232;28;20043;-67
2022/09/07 01:41:41;;;;;;;11.77;10.52;;;17.60;99.90;;;;;;5081228;28;20686;-67
2022/09/07 01:44:19;;;;;;;10.80;9.35;;;17.50;99.90;;;;;;5093460;28;20282;-69
2022/09/07 01:46:54;;;;;;;12.52;9.55;;;17.40;99.90;;;;;;5093339;28;20136;-67
2022/09/07 01:49:29;;;;;;;11.40;10.18;;;17.40;99.90;;;;;;5093335;28;20118;-66
2022/09/07 01:52:01;;;;;;;11.27;9.75;;;17.30;99.90;;;;;;5093270;28;20134;-69
2022/09/07 01:54:29;;;;;;;13.95;10.63;;;17.30;99.90;;;;;;5093506;28;20050;-68
2022/09/07 01:57:00;;;;;;;14.02;11.20;;;17.30;99.90;;;;;;5091718;28;20108;-67
2022/09/07 01:59:36;;;;;;;18.50;12.57;;;17.30;99.90;;;;;;5093441;28;20281;-66
2022/09/07 02:02:05;;;;;;;16.13;12.50;;;17.20;99.90;;;;;;5092982;28;20088;-67
2022/09/07 02:04:46;;;;;;;18.02;13.93;;;17.10;99.90;;;;;;5093547;28;20048;-66
2022/09/07 02:07:16;;;;;;;16.65;15.02;;;17.00;99.90;;;;;;5089715;28;20040;-65
2022/09/07 02:09:48;;;;;;;17.17;15.48;;;17.00;99.90;;;;;;5073405;28;20070;-67
2022/09/07 02:12:23;;;;;;;17.08;15.35;;;16.70;99.90;;;;;;5073403;28;20136;-68
2022/09/07 02:14:54;;;;;;;17.67;15.95;;;16.70;99.90;;;;;;5073852;28;20409;-66
2022/09/07 02:17:33;;;;;;;22.02;16.92;;;16.70;99.90;;;;;;5073559;28;20048;-66
2022/09/07 02:20:25;;;;;;;19.42;17.63;;;16.60;99.90;;;;;;5072720;28;20463;-66
2022/09/07 02:22:56;;;;;;;23.70;21.30;;;16.50;99.90;;;;;;5073007;28;20510;-66
2022/09/07 02:25:25;;;;;;;23.85;21.48;;;16.60;99.90;;;;;;5084329;28;20048;-66
2022/09/07 02:27:57;;;;;;;25.48;22.38;;;16.50;99.90;;;;;;5092563;28;20047;-66
2022/09/07 02:30:23;;;;;;;27.27;24.47;;;16.50;99.90;;;;;;5092696;28;20219;-69
2022/09/07 02:32:49;;;;;;;23.63;21.10;;;16.40;99.90;;;;;;5092643;28;20106;-67
2022/09/07 02:35:15;;;;;;;21.10;19.10;;;16.30;99.90;;;;;;5091959;28;20134;-66
2022/09/07 02:37:43;;;;;;;24.65;22.50;;;16.20;99.90;;;;;;5092110;28;20059;-67
2022/09/07 02:40:09;;;;;;;20.75;18.75;;;16.30;99.90;;;;;;5092385;28;20085;-66
2022/09/07 02:42:37;;;;;;;22.80;20.58;;;16.10;99.90;;;;;;5090728;28;20042;-69
2022/09/07 02:45:05;;;;;;;24.75;22.35;;;16.10;99.90;;;;;;5092477;28;20051;-68
2022/09/07 02:47:58;;;;;;;26.75;24.15;;;16.10;99.90;;;;;;5090838;28;20542;-67
2022/09/07 02:50:42;;;;;;;28.07;25.30;;;16.10;99.90;;;;;;5091975;28;20047;-68
2022/09/07 02:53:26;;;;;;;26.85;24.08;;;16.10;99.90;;;;;;5091606;28;20052;-70
2022/09/07 02:56:16;;;;;;;31.17;28.17;;;15.90;99.90;;;;;;5091685;28;20039;-68
2022/09/07 02:59:15;;;;;;;31.67;28.25;;;16.00;99.90;;;;;;5092245;28;20107;-67
2022/09/07 03:02:02;;;;;;;29.83;26.88;;;16.10;99.90;;;;;;5090914;28;20582;-69
2022/09/07 03:05:01;;;;;;;33.10;29.80;;;16.10;99.90;;;;;;5091229;28;20055;-68
2022/09/07 03:07:38;;;;;;;33.25;29.90;;;16.00;99.90;;;;;;5091474;28;20051;-69
2022/09/07 03:10:06;;;;;;;34.97;31.35;;;16.20;99.90;;;;;;5091112;28;21009;-67
2022/09/07 03:12:39;;;;;;;31.85;28.63;;;16.20;99.90;;;;;;5091221;28;20317;-67
2022/09/07 03:15:05;;;;;;;29.23;26.40;;;16.10;99.90;;;;;;5089932;28;20101;-67
2022/09/07 03:17:31;;;;;;;30.63;27.63;;;16.30;99.90;;;;;;5091347;28;20047;-70
2022/09/07 03:19:56;;;;;;;30.77;27.65;;;16.20;99.90;;;;;;5091322;27;20254;-69
2022/09/07 03:22:22;;;;;;;32.85;29.63;;;16.20;99.90;;;;;;5090890;28;20048;-67
2022/09/07 03:24:47;;;;;;;28.88;26.17;;;16.30;99.90;;;;;;5089795;28;20059;-69
2022/09/07 03:27:13;;;;;;;32.22;28.92;;;16.40;99.90;;;;;;5091132;28;20142;-67
2022/09/07 03:29:39;;;;;;;28.88;26.13;;;16.30;99.90;;;;;;5089333;28;21222;-68
2022/09/07 03:32:05;;;;;;;28.55;25.80;;;16.40;99.90;;;;;;5091254;28;20050;-67
2022/09/07 03:34:30;;;;;;;28.20;25.35;;;16.30;99.90;;;;;;5091825;28;20658;-69
2022/09/07 03:36:56;;;;;;;27.77;25.00;;;16.40;99.90;;;;;;5057620;28;20143;-67
2022/09/07 03:39:22;;;;;;;28.45;25.75;;;16.40;99.90;;;;;;5071468;28;20051;-68
2022/09/07 03:41:49;;;;;;;31.63;28.42;;;16.30;99.90;;;;;;5072051;28;20056;-66
2022/09/07 03:44:15;;;;;;;30.42;27.17;;;16.40;99.90;;;;;;5071614;28;20060;-68
2022/09/07 03:46:40;;;;;;;29.92;27.13;;;16.60;99.90;;;;;;5072276;28;20062;-70
2022/09/07 03:49:06;;;;;;;30.40;27.27;;;16.50;99.90;;;;;;5073023;28;20454;-67
2022/09/07 03:51:32;;;;;;;33.15;29.95;;;16.60;99.90;;;;;;5074517;28;20450;-67
2022/09/07 03:53:59;;;;;;;35.88;31.98;;;16.60;99.90;;;;;;5073740;28;20083;-66
2022/09/07 03:56:25;;;;;;;30.27;25.02;;;16.70;99.90;;;;;;5075481;28;20557;-67
2022/09/07 03:58:53;;;;;;;31.40;27.23;;;16.60;99.90;;;;;;5093008;28;20052;-67
2022/09/07 04:01:21;;;;;;;31.25;27.83;;;16.80;99.90;;;;;;5090951;28;20059;-67
2022/09/07 04:03:47;;;;;;;30.75;27.58;;;16.70;99.90;;;;;;5089409;28;20513;-66
2022/09/07 04:06:14;;;;;;;18.75;16.92;;;16.80;99.90;;;;;;5088743;28;20530;-66
2022/09/07 04:08:40;;;;;;;23.17;20.70;;;17.00;99.90;;;;;;5090341;27;20081;-66
2022/09/07 04:11:08;;;;;;;24.40;22.25;;;16.90;99.90;;;;;;5089874;28;20554;-69
2022/09/07 04:13:35;;;;;;;20.75;18.73;;;16.90;99.90;;;;;;5089815;28;20334;-68
2022/09/07 04:16:13;;;;;;;23.65;21.48;;;17.00;99.90;;;;;;5090255;28;20051;-66
2022/09/07 04:18:39;;;;;;;26.77;24.17;;;16.90;99.90;;;;;;5090146;28;20051;-68
2022/09/07 04:21:05;;;;;;;22.60;20.23;;;16.80;99.90;;;;;;5088675;28;20331;-66
2022/09/07 04:23:31;;;;;;;25.42;22.95;;;16.90;99.90;;;;;;5090099;28;20074;-67
2022/09/07 04:25:57;;;;;;;29.08;26.35;;;16.80;99.90;;;;;;5088757;28;20075;-68
2022/09/07 04:28:22;;;;;;;29.55;26.75;;;17.00;99.90;;;;;;5090391;28;20504;-67
2022/09/07 04:30:48;;;;;;;28.77;25.92;;;16.80;99.90;;;;;;5090664;28;20077;-67
2022/09/07 04:33:14;;;;;;;29.98;27.25;;;16.70;99.90;;;;;;5080068;28;20043;-71
2022/09/07 04:35:41;;;;;;;33.35;30.15;;;16.50;99.90;;;;;;5073279;28;20094;-65
2022/09/07 04:38:11;;;;;;;35.63;31.88;;;16.50;99.90;;;;;;5054941;28;20059;-69
2022/09/07 04:40:37;;;;;;;34.38;30.85;;;16.50;99.90;;;;;;5079506;28;20047;-68
2022/09/07 04:43:04;;;;;;;34.63;31.25;;;16.40;99.90;;;;;;5092637;28;20270;-68
2022/09/07 04:45:30;;;;;;;35.50;32.05;;;16.30;99.90;;;;;;5092723;28;21158;-67
2022/09/07 04:47:56;;;;;;;34.28;30.75;;;16.40;99.90;;;;;;5092147;28;20047;-70
2022/09/07 04:50:23;;;;;;;37.78;34.00;;;16.20;99.90;;;;;;5091875;28;20521;-68
2022/09/07 04:52:49;;;;;;;39.05;35.28;;;16.20;99.90;;;;;;5092468;28;20245;-69
2022/09/07 04:55:15;;;;;;;34.92;31.42;;;16.30;99.90;;;;;;5090882;28;20624;-69
2022/09/07 04:57:41;;;;;;;36.17;32.30;;;16.30;99.90;;;;;;5091932;28;20804;-67
2022/09/07 05:00:08;;;;;;;36.88;33.05;;;16.20;99.90;;;;;;5091399;28;20052;-67
2022/09/07 05:02:34;;;;;;;36.65;32.92;;;16.30;99.90;;;;;;5089347;28;20091;-66
2022/09/07 05:04:59;;;;;;;37.72;34.13;;;16.30;99.90;;;;;;5089450;28;20387;-67
2022/09/07 05:07:25;;;;;;;35.42;31.95;;;16.30;99.90;;;;;;5089833;28;20139;-69
2022/09/07 05:09:50;;;;;;;43.35;39.10;;;16.30;99.90;;;;;;5070431;28;20537;-69
2022/09/07 05:12:16;;;;;;;37.67;34.08;;;16.30;99.90;;;;;;5071742;28;20238;-68
2022/09/07 05:14:42;;;;;;;36.58;33.10;;;16.30;99.90;;;;;;5072853;28;20522;-68
2022/09/07 05:17:07;;;;;;;39.85;36.05;;;16.30;99.90;;;;;;5070095;28;20495;-68
2022/09/07 05:19:33;;;;;;;38.85;34.85;;;16.10;99.90;;;;;;5071806;28;20048;-66
2022/09/07 05:21:59;;;;;;;36.50;32.63;;;16.30;99.90;;;;;;5072100;28;20138;-73
2022/09/07 05:24:27;;;;;;;36.63;33.13;;;16.20;99.90;;;;;;5072227;28;20143;-68
2022/09/07 05:26:53;;;;;;;41.65;37.40;;;16.30;99.90;;;;;;5070957;28;20066;-67
2022/09/07 05:29:19;;;;;;;38.38;34.35;;;16.20;99.90;;;;;;5072632;28;21026;-70
2022/09/07 05:31:46;;;;;;;38.65;34.80;;;16.20;99.90;;;;;;5071990;28;20442;-67
2022/09/07 05:34:13;;;;;;;41.58;37.38;;;16.40;99.90;;;;;;5074923;28;20039;-67
2022/09/07 05:36:40;;;;;;;35.80;32.17;;;16.40;99.90;;;;;;5090437;28;20071;-69
2022/09/07 05:39:06;;;;;;;35.33;32.03;;;16.40;99.90;;;;;;5089849;28;20040;-70
2022/09/07 05:41:32;;;;;;;36.08;32.50;;;16.40;99.90;;;;;;5092779;28;20435;-67
2022/09/07 05:43:58;;;;;;;41.08;37.00;;;16.30;99.90;;;;;;5094433;28;20051;-70
2022/09/07 05:46:24;;;;;;;37.90;34.10;;;16.30;99.90;;;;;;5093012;28;20451;-67
2022/09/07 05:48:49;;;;;;;38.03;34.15;;;16.40;99.90;;;;;;5093013;28;20112;-70
2022/09/07 05:51:15;;;;;;;35.47;32.15;;;16.50;99.90;;;;;;5094387;28;20055;-68
2022/09/07 05:53:44;;;;;;;35.85;32.55;;;16.30;99.90;;;;;;5092594;28;20074;-68
2022/09/07 05:56:11;;;;;;;36.85;33.25;;;16.30;99.90;;;;;;5094068;28;20088;-71
2022/09/07 05:58:37;;;;;;;38.00;34.08;;;16.30;99.90;;;;;;5093286;28;20131;-70
2022/09/07 06:01:12;;;;;;;35.03;31.83;;;16.50;99.90;;;;;;5094093;28;20048;-68
2022/09/07 06:03:40;;;;;;;34.17;30.98;;;16.30;99.90;;;;;;5094071;28;20113;-68
2022/09/07 06:06:15;;;;;;;34.90;31.45;;;16.40;99.90;;;;;;5093844;28;20499;-68
2022/09/07 06:08:49;;;;;;;33.58;30.48;;;16.40;99.90;;;;;;5094621;28;20160;-68
2022/09/07 06:11:18;;;;;;;35.75;32.28;;;16.50;99.90;;;;;;5092740;28;20135;-67
2022/09/07 06:13:44;;;;;;;32.28;29.27;;;16.40;99.90;;;;;;5092783;28;20051;-68
2022/09/07 06:16:11;;;;;;;34.85;31.63;;;16.50;99.90;;;;;;5092617;28;20059;-68
2022/09/07 06:18:39;;;;;;;32.92;29.83;;;16.40;99.90;;;;;;5094085;28;20051;-68
2022/09/07 06:21:10;;;;;;;34.85;31.50;;;16.70;99.90;;;;;;5094136;28;20407;-69
2022/09/07 06:23:38;;;;;;;30.75;27.80;;;16.70;99.90;;;;;;5088068;28;20625;-68
2022/09/07 06:26:05;;;;;;;32.17;29.17;;;16.70;99.90;;;;;;5072564;28;20044;-65
2022/09/07 06:28:35;;;;;;;33.03;29.75;;;16.80;99.90;;;;;;5075055;28;20052;-67
2022/09/07 06:31:10;;;;;;;34.58;31.15;;;17.00;99.90;;;;;;5075008;28;20384;-68
2022/09/07 06:33:35;;;;;;;33.65;30.50;;;17.10;99.90;;;;;;5076561;28;20039;-71
2022/09/07 06:36:11;;;;;;;34.80;31.13;;;17.10;99.90;;;;;;5076263;28;20675;-68
2022/09/07 06:38:37;;;;;;;33.53;30.27;;;17.20;99.90;;;;;;5075851;28;20575;-67
2022/09/07 06:41:08;;;;;;;33.72;30.50;;;17.40;99.90;;;;;;5075681;28;20040;-67
2022/09/07 06:43:34;;;;;;;32.05;28.88;;;17.30;99.90;;;;;;5076358;28;20039;-65
2022/09/07 06:46:00;;;;;;;33.63;30.17;;;17.40;99.90;;;;;;5076291;28;20048;-66
2022/09/07 06:48:27;;;;;;;34.58;31.13;;;17.50;99.90;;;;;;5088899;28;20359;-69
2022/09/07 06:50:56;;;;;;;31.23;28.05;;;17.40;99.90;;;;;;5091277;28;20133;-68
2022/09/07 06:53:22;;;;;;;31.27;28.15;;;17.50;99.90;;;;;;5077378;28;20044;-68
2022/09/07 06:55:48;;;;;;;31.52;28.40;;;17.40;99.90;;;;;;5074785;28;20139;-68
2022/09/07 06:58:14;;;;;;;32.72;29.48;;;17.50;99.90;;;;;;5076361;28;20055;-67
2022/09/07 07:00:39;;;;;;;29.27;26.67;;;17.50;99.90;;;;;;5075511;28;20076;-70
2022/09/07 07:03:05;;;;;;;31.70;28.80;;;17.70;99.90;;;;;;5074992;28;20059;-67
2022/09/07 07:05:30;;;;;;;29.98;27.27;;;17.70;99.90;;;;;;5075072;28;20054;-66
2022/09/07 07:07:56;;;;;;;30.23;27.42;;;17.50;99.90;;;;;;5075031;28;20389;-66
2022/09/07 07:10:23;;;;;;;29.25;26.55;;;17.60;99.90;;;;;;5077696;28;20086;-68
2022/09/07 07:12:48;;;;;;;30.08;27.48;;;17.70;99.90;;;;;;5078178;28;20113;-68
2022/09/07 07:15:14;;;;;;;26.98;24.52;;;17.60;99.90;;;;;;5076231;28;20056;-67
2022/09/07 07:17:40;;;;;;;30.98;27.92;;;17.80;99.90;;;;;;5077641;28;20395;-67
2022/09/07 07:20:06;;;;;;;26.55;24.35;;;17.90;99.90;;;;;;5075887;28;20048;-70
2022/09/07 07:22:32;;;;;;;25.58;23.42;;;17.90;99.90;;;;;;5077335;28;20162;-66
2022/09/07 07:24:58;;;;;;;23.65;21.45;;;18.20;99.90;;;;;;5076247;28;20126;-66
2022/09/07 07:27:24;;;;;;;20.92;19.15;;;18.50;99.90;;;;;;5076504;28;20048;-68
2022/09/07 07:29:51;;;;;;;19.15;17.55;;;18.70;99.90;;;;;;5059028;28;20055;-67
2022/09/07 07:32:17;;;;;;;18.67;17.00;;;18.80;99.90;;;;;;5076881;28;20579;-70
2022/09/07 07:35:01;;;;;;;18.92;17.08;;;18.90;99.90;;;;;;5077295;28;20536;-69
2022/09/07 07:37:27;;;;;;;20.83;18.85;;;19.00;99.90;;;;;;5077506;28;20051;-69
2022/09/07 07:39:52;;;;;;;21.40;19.48;;;19.10;99.90;;;;;;5075099;28;20567;-67
2022/09/07 07:42:18;;;;;;;20.98;18.92;;;19.00;99.90;;;;;;5079448;28;20537;-69
2022/09/07 07:44:43;;;;;;;19.65;17.95;;;18.90;99.90;;;;;;5092844;28;20052;-71
2022/09/07 07:47:09;;;;;;;21.55;19.58;;;18.90;99.90;;;;;;5093620;28;20251;-66
2022/09/07 07:49:35;;;;;;;20.17;18.17;;;18.70;99.90;;;;;;5093178;28;20505;-66
2022/09/07 07:52:01;;;;;;;19.35;17.77;;;18.70;99.90;;;;;;5093716;28;20517;-70
2022/09/07 07:54:26;;;;;;;20.15;18.42;;;18.60;99.90;;;;;;5093602;28;20526;-66
2022/09/07 07:56:52;;;;;;;17.65;16.02;;;18.60;99.90;;;;;;5085448;28;20499;-69
2022/09/07 07:59:18;;;;;;;17.65;15.93;;;18.40;99.90;;;;;;5073269;28;20097;-67
2022/09/07 08:01:43;;;;;;;16.95;15.45;;;18.30;99.90;;;;;;5082508;28;20055;-66
2022/09/07 08:04:09;;;;;;;17.42;15.93;;;18.10;99.90;;;;;;5092899;27;20050;-67
2022/09/07 08:06:35;;;;;;;17.98;16.58;;;17.90;99.90;;;;;;5093019;28;20093;-67
2022/09/07 08:09:01;;;;;;;18.13;16.45;;;17.90;99.90;;;;;;5093300;28;20082;-64
2022/09/07 08:11:29;;;;;;;18.95;17.10;;;17.90;99.90;;;;;;5081868;28;20055;-69
2022/09/07 08:13:55;;;;;;;19.77;18.13;;;17.70;99.90;;;;;;5073314;28;20533;-68
2022/09/07 08:16:21;;;;;;;21.60;19.42;;;17.80;99.90;;;;;;5073274;28;20044;-66
2022/09/07 08:18:48;;;;;;;19.23;17.52;;;17.70;99.90;;;;;;5073275;28;20052;-68
2022/09/07 08:21:15;;;;;;;22.45;20.45;;;17.60;99.90;;;;;;5073744;28;20051;-67
2022/09/07 08:23:41;;;;;;;22.00;20.10;;;17.60;99.90;;;;;;5081452;28;20050;-68
2022/09/07 08:26:07;;;;;;;23.25;21.10;;;17.70;99.90;;;;;;5091335;28;20051;-67
2022/09/07 08:28:36;;;;;;;24.23;22.10;;;17.80;99.90;;;;;;5092418;28;20081;-67
2022/09/07 08:31:07;;;;;;;25.05;22.75;;;17.90;99.90;;;;;;5092409;28;20651;-67
2022/09/07 08:33:37;;;;;;;24.02;21.70;;;18.00;99.90;;;;;;5091007;28;20054;-67
2022/09/07 08:36:14;;;;;;;24.10;22.00;;;18.20;99.90;;;;;;5090956;28;20043;-67
2022/09/07 08:38:40;;;;;;;24.30;22.10;;;18.40;99.90;;;;;;5088644;28;20055;-65
2022/09/07 08:41:25;;;;;;;22.80;20.75;;;18.40;99.90;;;;;;5089489;28;20700;-68
2022/09/07 08:44:00;;;;;;;23.20;21.05;;;18.40;99.90;;;;;;5088504;28;20051;-68
2022/09/07 08:47:08;;;;;;;25.10;22.45;;;18.40;99.90;;;;;;5089648;28;20047;-65
2022/09/07 08:49:39;;;;;;;23.92;21.65;;;18.50;99.90;;;;;;5089487;28;20063;-66
2022/09/07 08:52:29;;;;;;;22.83;20.88;;;18.60;99.90;;;;;;5089410;28;20748;-69
2022/09/07 08:55:09;;;;;;;23.60;21.60;;;18.70;99.90;;;;;;5088180;28;20043;-66
2022/09/07 08:57:39;;;;;;;23.92;21.77;;;18.80;99.90;;;;;;5089981;28;20039;-69
2022/09/07 09:00:10;;;;;;;23.25;20.98;;;18.70;99.90;;;;;;5089529;28;20130;-68
2022/09/07 09:02:36;;;;;;;22.90;21.00;;;18.80;99.90;;;;;;5087730;28;20428;-67
2022/09/07 09:05:04;;;;;;;22.67;20.50;;;19.00;99.90;;;;;;5088996;27;20051;-66
2022/09/07 09:07:41;;;;;;;21.15;19.27;;;19.10;99.90;;;;;;5088501;28;20055;-67
2022/09/07 09:10:27;;;;;;;20.08;18.13;;;19.10;99.90;;;;;;5088763;28;20398;-68
2022/09/07 09:13:16;;;;;;;20.40;18.63;;;19.60;99.90;;;;;;5089178;28;20666;-69
2022/09/07 09:16:00;;;;;;;19.20;17.63;;;19.80;99.90;;;;;;5088082;28;20122;-66
2022/09/07 09:18:42;;;;;;;19.80;18.00;;;20.10;99.90;;;;;;5087304;28;20039;-66
2022/09/07 09:21:14;;;;;;;18.55;17.00;;;20.00;99.90;;;;;;5087767;28;20044;-69
2022/09/07 09:23:42;;;;;;;20.70;18.80;;;19.80;99.90;;;;;;5089195;28;20086;-65
2022/09/07 09:26:22;;;;;;;19.80;17.85;;;19.80;99.90;;;;;;5088737;28;20122;-67
2022/09/07 09:28:48;;;;;;;19.75;17.90;;;19.70;99.90;;;;;;5090038;28;20531;-67
2022/09/07 09:31:34;;;;;;;20.40;18.65;;;19.70;99.90;;;;;;5089405;28;20040;-67
2022/09/07 09:34:16;;;;;;;20.45;18.75;;;19.70;99.90;;;;;;5089341;28;20433;-67
2022/09/07 09:36:49;;;;;;;19.85;18.08;;;19.80;99.90;;;;;;5087708;28;20081;-67
2022/09/07 09:39:35;;;;;;;19.20;17.50;;;20.00;99.90;;;;;;5088641;28;20384;-68
2022/09/07 09:42:22;;;;;;;20.27;18.35;;;19.90;99.90;;;;;;5088919;28;20083;-69
2022/09/07 09:44:49;;;;;;;18.30;16.48;;;20.00;99.90;;;;;;5088748;28;20433;-68
2022/09/07 09:47:34;;;;;;;20.20;18.40;;;20.20;99.90;;;;;;5088812;28;20055;-67
2022/09/07 09:50:23;;;;;;;19.45;17.75;;;20.30;99.90;;;;;;5088159;28;20055;-67
2022/09/07 09:52:50;;;;;;;20.05;18.20;;;20.40;99.90;;;;;;5088573;28;20066;-67
2022/09/07 09:55:26;;;;;;;21.35;19.42;;;20.50;99.90;;;;;;5087121;28;20055;-65
2022/09/07 09:57:59;;;;;;;20.33;18.45;;;20.50;99.90;;;;;;5087204;28;20565;-68
2022/09/07 10:00:26;;;;;;;19.48;17.73;;;20.50;99.90;;;;;;5089173;28;20089;-68
2022/09/07 10:03:04;;;;;;;19.77;18.08;;;20.50;99.90;;;;;;5090134;28;20052;-66
2022/09/07 10:05:49;;;;;;;19.65;17.88;;;20.50;99.90;;;;;;5092687;28;20043;-67
2022/09/07 14:20:53;;;;;;;1.38;0.60;;;29.80;95.50;;;;;;5075893;28;20104;-67
2022/09/07 14:23:28;;;;;;;3.33;0.55;;;30.20;90.30;;;;;;5075170;28;20044;-67
2022/09/07 14:26:17;;;;;;;0.77;0.40;;;30.00;83.70;;;;;;5073303;28;20088;-66
2022/09/07 14:28:44;;;;;;;1.40;0.57;;;30.00;82.10;;;;;;5073350;28;20322;-66
2022/09/07 14:31:14;;;;;;;1.70;0.50;;;29.90;80.70;;;;;;5071806;28;20059;-69
2022/09/07 14:33:54;;;;;;;4.95;4.47;;;28.60;85.50;;;;;;5074522;28;20056;-65
2022/09/07 14:36:28;;;;;;;7.03;6.25;;;27.20;98.80;;;;;;5077948;28;20035;-67
2022/09/07 14:38:56;;;;;;;7.93;7.22;;;26.90;99.90;;;;;;5094678;28;20062;-66
2022/09/07 14:41:22;;;;;;;7.45;6.78;;;26.50;99.90;;;;;;5094428;28;20407;-69
2022/09/07 14:43:56;;;;;;;7.07;6.45;;;27.30;99.90;;;;;;5091986;28;20264;-67
2022/09/07 14:46:31;;;;;;;8.15;7.40;;;28.20;99.90;;;;;;5091335;28;20083;-67
2022/09/07 14:49:03;;;;;;;8.35;7.65;;;29.00;99.90;;;;;;5091663;28;20056;-66
2022/09/07 14:51:34;;;;;;;9.18;8.48;;;29.60;99.90;;;;;;5094588;28;20079;-67
2022/09/07 14:54:06;;;;;;;8.35;7.60;;;30.10;99.60;;;;;;5092838;28;20078;-67
2022/09/07 14:56:33;;;;;;;8.63;8.00;;;30.60;97.60;;;;;;5094607;28;20040;-67
2022/09/07 14:58:59;;;;;;;7.65;7.05;;;30.70;96.20;;;;;;5095033;28;20046;-69
2022/09/07 15:01:25;;;;;;;8.45;7.85;;;30.60;94.90;;;;;;5093311;28;20047;-67
2022/09/07 15:03:59;;;;;;;8.73;7.93;;;30.60;94.70;;;;;;5094350;28;20613;-69
2022/09/07 15:06:35;;;;;;;8.27;7.57;;;30.70;95.00;;;;;;5094754;28;20111;-67
2022/09/07 15:09:02;;;;;;;8.30;7.70;;;30.40;95.20;;;;;;5094707;28;20126;-66
2022/09/07 15:11:36;;;;;;;8.52;7.75;;;29.70;94.30;;;;;;5095454;28;20046;-67
2022/09/07 15:14:19;;;;;;;8.23;7.63;;;29.90;94.90;;;;;;5094177;28;20497;-67
2022/09/07 15:16:58;;;;;;;7.68;6.88;;;29.30;95.40;;;;;;5093005;28;20047;-66
2022/09/07 15:19:32;;;;;;;8.50;7.72;;;28.90;98.20;;;;;;5093072;28;20114;-66
2022/09/07 15:21:58;;;;;;;8.50;7.80;;;28.30;99.90;;;;;;5093028;28;20058;-66
2022/09/07 15:24:23;;;;;;;8.68;7.82;;;27.70;99.90;;;;;;5080043;28;20059;-66
2022/09/07 15:26:51;;;;;;;10.10;9.10;;;27.70;99.90;;;;;;5073789;28;20048;-66
2022/09/07 15:29:18;;;;;;;8.73;8.02;;;27.00;99.90;;;;;;5072472;28;20193;-69
2022/09/07 15:31:45;;;;;;;10.02;9.23;;;26.60;99.90;;;;;;5072809;28;20679;-67
2022/09/07 15:34:16;;;;;;;10.55;9.52;;;26.10;99.90;;;;;;5091784;28;20047;-68
2022/09/07 15:36:50;;;;;;;9.55;8.80;;;25.60;99.90;;;;;;5072365;28;20119;-67
2022/09/07 15:39:22;;;;;;;11.57;10.57;;;25.20;99.90;;;;;;5072144;28;20593;-69
2022/09/07 15:41:48;;;;;;;13.40;12.20;;;24.80;99.90;;;;;;5072652;28;20058;-67
2022/09/07 15:44:15;;;;;;;14.77;13.48;;;24.50;99.90;;;;;;5071948;28;20051;-67
2022/09/07 15:46:44;;;;;;;14.65;13.32;;;24.40;99.90;;;;;;5070438;28;20190;-69
2022/09/07 15:49:11;;;;;;;15.40;14.02;;;24.10;99.90;;;;;;5069804;28;20997;-69
2022/09/07 15:51:38;;;;;;;14.57;13.20;;;23.90;99.90;;;;;;5090718;28;20055;-70
2022/09/07 15:54:04;;;;;;;15.07;13.68;;;23.60;99.90;;;;;;5090888;28;20035;-68
2022/09/07 15:56:30;;;;;;;15.35;13.98;;;23.50;99.90;;;;;;5091403;28;20055;-66
2022/09/07 15:58:55;;;;;;;16.00;13.98;;;23.50;99.90;;;;;;5075706;28;20052;-66
2022/09/07 16:01:22;;;;;;;13.13;12.13;;;23.50;99.90;;;;;;5070085;28;20055;-67
2022/09/07 16:03:55;;;;;;;13.30;12.10;;;23.60;99.90;;;;;;5069300;28;20518;-69
2022/09/07 16:06:22;;;;;;;13.13;11.93;;;23.70;99.90;;;;;;5069594;28;20957;-67
2022/09/07 16:08:49;;;;;;;12.40;11.30;;;23.80;99.90;;;;;;5071252;28;20046;-66
2022/09/07 16:11:18;;;;;;;10.60;9.60;;;24.10;99.90;;;;;;5070885;28;20062;-66
2022/09/07 16:13:44;;;;;;;9.85;8.98;;;24.50;99.90;;;;;;5086179;28;20467;-66
2022/09/07 16:16:10;;;;;;;10.45;9.52;;;25.00;99.90;;;;;;5090878;28;20127;-66
2022/09/07 16:18:37;;;;;;;11.07;10.15;;;25.00;99.90;;;;;;5092761;28;20055;-68
2022/09/07 16:21:11;;;;;;;11.35;10.35;;;24.80;99.90;;;;;;5092580;28;20330;-67
2022/09/07 16:23:39;;;;;;;13.10;11.85;;;24.90;99.90;;;;;;5093434;28;20362;-70
2022/09/07 16:26:07;;;;;;;13.85;12.52;;;24.80;99.90;;;;;;5074301;28;20039;-66
2022/09/07 16:28:34;;;;;;;15.15;13.70;;;24.40;99.90;;;;;;5092420;28;20407;-67
2022/09/07 16:31:07;;;;;;;15.57;14.10;;;24.00;99.90;;;;;;5091017;28;20096;-66
2022/09/07 16:33:34;;;;;;;16.05;14.65;;;23.60;99.90;;;;;;5092784;28;20689;-67
2022/09/07 16:36:06;;;;;;;16.52;15.07;;;23.30;99.90;;;;;;5092754;28;20340;-68
2022/09/07 16:38:33;;;;;;;14.20;12.87;;;23.00;99.90;;;;;;5092578;28;20067;-66
2022/09/07 16:40:59;;;;;;;13.65;12.45;;;22.80;99.90;;;;;;5092222;28;20043;-67
2022/09/07 16:43:26;;;;;;;12.63;11.48;;;22.70;99.90;;;;;;5092679;28;20669;-67
2022/09/07 16:46:05;;;;;;;12.55;11.32;;;22.50;99.90;;;;;;5092544;28;20435;-67
2022/09/07 16:48:33;;;;;;;12.30;11.20;;;22.40;99.90;;;;;;5092462;28;20043;-69
2022/09/07 16:50:59;;;;;;;11.35;10.45;;;22.40;99.90;;;;;;5092210;28;20100;-67
2022/09/07 16:53:26;;;;;;;11.27;10.25;;;22.30;99.90;;;;;;5092848;28;20473;-66
2022/09/07 16:55:52;;;;;;;12.20;11.10;;;22.10;99.90;;;;;;5091625;28;20139;-66
2022/09/07 16:58:17;;;;;;;12.82;11.63;;;22.00;99.90;;;;;;5093388;28;20342;-69